sensor_id;sensor_type;location;lat;lon;timestamp;P1;durP1;ratioP1;P2;durP2;ratioP2
38611;SDS011;24368;52.156;20.788;2023-12-20T00:00:42;11.70;;;10.50;;
38611;SDS011;24368;52.156;20.788;2023-12-20T00:06:04;12.10;;;10.60;;
38611;SDS011;24368;52.156;20.788;2023-12-20T00:11:05;11.20;;;9.90;;
38611;SDS011;24368;52.156;20.788;2023-12-20T00:16:07;12.00;;;10.60;;
38611;SDS011;24368;52.156;20.788;2023-12-20T00:21:09;11.80;;;8.90;;
38611;SDS011;24368;52.156;20.788;2023-12-20T00:26:11;10.20;;;9.20;;
38611;SDS011;24368;52.156;20.788;2023-12-20T00:31:12;10.60;;;9.40;;
38611;SDS011;24368;52.156;20.788;2023-12-20T00:36:14;10.00;;;9.10;;
38611;SDS011;24368;52.156;20.788;2023-12-20T00:41:16;9.80;;;8.90;;
38611;SDS011;24368;52.156;20.788;2023-12-20T00:46:18;9.30;;;8.40;;
38611;SDS011;24368;52.156;20.788;2023-12-20T00:51:20;10.00;;;9.00;;
38611;SDS011;24368;52.156;20.788;2023-12-20T00:56:23;8.60;;;7.80;;
38611;SDS011;24368;52.156;20.788;2023-12-20T01:01:25;9.50;;;8.60;;
38611;SDS011;24368;52.156;20.788;2023-12-20T01:06:27;9.20;;;8.30;;
38611;SDS011;24368;52.156;20.788;2023-12-20T01:11:28;8.50;;;7.70;;
38611;SDS011;24368;52.156;20.788;2023-12-20T01:16:30;8.00;;;7.20;;
38611;SDS011;24368;52.156;20.788;2023-12-20T01:21:32;9.20;;;8.30;;
38611;SDS011;24368;52.156;20.788;2023-12-20T01:26:33;9.20;;;8.20;;
38611;SDS011;24368;52.156;20.788;2023-12-20T01:31:35;9.20;;;8.30;;
38611;SDS011;24368;52.156;20.788;2023-12-20T01:36:37;7.80;;;7.00;;
38611;SDS011;24368;52.156;20.788;2023-12-20T01:41:39;9.70;;;8.70;;
38611;SDS011;24368;52.156;20.788;2023-12-20T01:46:41;9.20;;;8.30;;
38611;SDS011;24368;52.156;20.788;2023-12-20T01:51:42;10.30;;;8.50;;
38611;SDS011;24368;52.156;20.788;2023-12-20T01:56:45;9.60;;;8.30;;
38611;SDS011;24368;52.156;20.788;2023-12-20T02:01:47;8.40;;;7.60;;
38611;SDS011;24368;52.156;20.788;2023-12-20T02:06:49;9.00;;;8.10;;
38611;SDS011;24368;52.156;20.788;2023-12-20T02:11:54;8.40;;;7.60;;
38611;SDS011;24368;52.156;20.788;2023-12-20T02:16:56;8.80;;;7.90;;
38611;SDS011;24368;52.156;20.788;2023-12-20T02:22:31;10.50;;;8.80;;
38611;SDS011;24368;52.156;20.788;2023-12-20T02:27:28;10.40;;;9.30;;
38611;SDS011;24368;52.156;20.788;2023-12-20T02:32:31;8.70;;;6.80;;
38611;SDS011;24368;52.156;20.788;2023-12-20T02:37:35;6.80;;;6.10;;
38611;SDS011;24368;52.156;20.788;2023-12-20T02:42:37;7.60;;;6.90;;
38611;SDS011;24368;52.156;20.788;2023-12-20T02:47:38;9.70;;;8.70;;
38611;SDS011;24368;52.156;20.788;2023-12-20T02:52:40;8.10;;;7.40;;
38611;SDS011;24368;52.156;20.788;2023-12-20T02:57:42;6.30;;;5.70;;
38611;SDS011;24368;52.156;20.788;2023-12-20T03:02:44;7.10;;;6.40;;
38611;SDS011;24368;52.156;20.788;2023-12-20T03:07:46;5.70;;;5.10;;
38611;SDS011;24368;52.156;20.788;2023-12-20T03:12:48;6.20;;;5.60;;
38611;SDS011;24368;52.156;20.788;2023-12-20T03:17:50;6.10;;;5.50;;
38611;SDS011;24368;52.156;20.788;2023-12-20T03:22:52;5.80;;;4.90;;
38611;SDS011;24368;52.156;20.788;2023-12-20T03:27:54;6.00;;;5.40;;
38611;SDS011;24368;52.156;20.788;2023-12-20T03:32:56;5.10;;;4.70;;
38611;SDS011;24368;52.156;20.788;2023-12-20T03:38:00;4.90;;;3.70;;
38611;SDS011;24368;52.156;20.788;2023-12-20T03:43:01;4.80;;;4.40;;
38611;SDS011;24368;52.156;20.788;2023-12-20T03:48:03;5.20;;;3.90;;
38611;SDS011;24368;52.156;20.788;2023-12-20T03:53:06;4.90;;;4.30;;
38611;SDS011;24368;52.156;20.788;2023-12-20T03:58:08;5.40;;;4.90;;
38611;SDS011;24368;52.156;20.788;2023-12-20T04:03:09;5.40;;;4.90;;
38611;SDS011;24368;52.156;20.788;2023-12-20T04:08:14;5.00;;;4.60;;
38611;SDS011;24368;52.156;20.788;2023-12-20T04:13:18;4.50;;;4.10;;
38611;SDS011;24368;52.156;20.788;2023-12-20T04:18:19;3.90;;;3.60;;
38611;SDS011;24368;52.156;20.788;2023-12-20T04:23:21;4.70;;;4.30;;
38611;SDS011;24368;52.156;20.788;2023-12-20T04:28:23;4.70;;;4.30;;
38611;SDS011;24368;52.156;20.788;2023-12-20T04:33:25;4.90;;;4.50;;
38611;SDS011;24368;52.156;20.788;2023-12-20T04:38:29;4.20;;;3.90;;
38611;SDS011;24368;52.156;20.788;2023-12-20T04:43:30;4.60;;;4.10;;
38611;SDS011;24368;52.156;20.788;2023-12-20T04:48:33;4.50;;;4.10;;
38611;SDS011;24368;52.156;20.788;2023-12-20T04:53:35;4.90;;;4.50;;
38611;SDS011;24368;52.156;20.788;2023-12-20T04:58:36;5.50;;;5.00;;
38611;SDS011;24368;52.156;20.788;2023-12-20T05:03:38;5.70;;;5.20;;
38611;SDS011;24368;52.156;20.788;2023-12-20T05:08:41;5.70;;;5.20;;
38611;SDS011;24368;52.156;20.788;2023-12-20T05:13:43;5.50;;;5.00;;
38611;SDS011;24368;52.156;20.788;2023-12-20T05:18:45;6.30;;;5.70;;
38611;SDS011;24368;52.156;20.788;2023-12-20T05:23:47;5.80;;;5.30;;
38611;SDS011;24368;52.156;20.788;2023-12-20T05:28:48;5.70;;;5.20;;
38611;SDS011;24368;52.156;20.788;2023-12-20T05:33:50;5.60;;;5.10;;
38611;SDS011;24368;52.156;20.788;2023-12-20T05:38:52;6.10;;;5.60;;
38611;SDS011;24368;52.156;20.788;2023-12-20T05:43:54;5.30;;;4.90;;
38611;SDS011;24368;52.156;20.788;2023-12-20T05:48:56;5.10;;;4.70;;
38611;SDS011;24368;52.156;20.788;2023-12-20T05:53:58;4.80;;;4.40;;
38611;SDS011;24368;52.156;20.788;2023-12-20T05:59:00;5.10;;;4.70;;
38611;SDS011;24368;52.156;20.788;2023-12-20T06:04:02;6.50;;;5.90;;
38611;SDS011;24368;52.156;20.788;2023-12-20T06:09:04;5.70;;;5.20;;
38611;SDS011;24368;52.156;20.788;2023-12-20T06:14:06;6.00;;;5.50;;
38611;SDS011;24368;52.156;20.788;2023-12-20T06:19:08;6.00;;;5.50;;
38611;SDS011;24368;52.156;20.788;2023-12-20T06:24:10;6.10;;;5.60;;
38611;SDS011;24368;52.156;20.788;2023-12-20T06:29:12;6.00;;;5.40;;
38611;SDS011;24368;52.156;20.788;2023-12-20T06:34:14;6.60;;;6.00;;
38611;SDS011;24368;52.156;20.788;2023-12-20T06:39:15;6.50;;;6.00;;
38611;SDS011;24368;52.156;20.788;2023-12-20T06:44:17;5.40;;;5.00;;
38611;SDS011;24368;52.156;20.788;2023-12-20T06:49:19;6.00;;;5.50;;
38611;SDS011;24368;52.156;20.788;2023-12-20T06:54:21;6.40;;;5.90;;
38611;SDS011;24368;52.156;20.788;2023-12-20T06:59:22;6.20;;;5.70;;
38611;SDS011;24368;52.156;20.788;2023-12-20T07:04:24;6.70;;;6.10;;
38611;SDS011;24368;52.156;20.788;2023-12-20T07:09:26;5.60;;;5.10;;
38611;SDS011;24368;52.156;20.788;2023-12-20T07:14:28;6.90;;;6.30;;
38611;SDS011;24368;52.156;20.788;2023-12-20T07:19:30;6.80;;;6.20;;
38611;SDS011;24368;52.156;20.788;2023-12-20T07:24:32;6.50;;;5.90;;
38611;SDS011;24368;52.156;20.788;2023-12-20T07:29:34;6.60;;;6.00;;
38611;SDS011;24368;52.156;20.788;2023-12-20T07:34:36;7.00;;;6.20;;
38611;SDS011;24368;52.156;20.788;2023-12-20T07:39:39;6.20;;;5.70;;
38611;SDS011;24368;52.156;20.788;2023-12-20T07:44:42;5.50;;;5.10;;
38611;SDS011;24368;52.156;20.788;2023-12-20T07:49:43;5.70;;;5.20;;
38611;SDS011;24368;52.156;20.788;2023-12-20T07:54:45;5.60;;;5.10;;
38611;SDS011;24368;52.156;20.788;2023-12-20T07:59:48;6.00;;;5.50;;
38611;SDS011;24368;52.156;20.788;2023-12-20T08:04:50;6.10;;;5.60;;
38611;SDS011;24368;52.156;20.788;2023-12-20T08:09:52;4.90;;;4.50;;
38611;SDS011;24368;52.156;20.788;2023-12-20T08:14:54;5.80;;;5.30;;
38611;SDS011;24368;52.156;20.788;2023-12-20T08:19:56;5.30;;;4.80;;
38611;SDS011;24368;52.156;20.788;2023-12-20T08:24:58;6.60;;;6.00;;
38611;SDS011;24368;52.156;20.788;2023-12-20T08:30:00;6.20;;;5.70;;
38611;SDS011;24368;52.156;20.788;2023-12-20T08:35:02;6.70;;;6.00;;
38611;SDS011;24368;52.156;20.788;2023-12-20T08:40:04;6.00;;;5.50;;
38611;SDS011;24368;52.156;20.788;2023-12-20T08:45:07;7.90;;;5.60;;
38611;SDS011;24368;52.156;20.788;2023-12-20T08:50:10;6.50;;;5.30;;
38611;SDS011;24368;52.156;20.788;2023-12-20T08:55:13;4.70;;;4.30;;
38611;SDS011;24368;52.156;20.788;2023-12-20T09:00:17;4.70;;;4.40;;
38611;SDS011;24368;52.156;20.788;2023-12-20T09:05:22;4.60;;;4.20;;
38611;SDS011;24368;52.156;20.788;2023-12-20T09:10:24;4.60;;;4.20;;
38611;SDS011;24368;52.156;20.788;2023-12-20T09:15:26;5.80;;;5.20;;
38611;SDS011;24368;52.156;20.788;2023-12-20T09:20:28;6.10;;;5.60;;
38611;SDS011;24368;52.156;20.788;2023-12-20T09:25:30;5.20;;;4.80;;
38611;SDS011;24368;52.156;20.788;2023-12-20T09:30:32;6.40;;;5.50;;
38611;SDS011;24368;52.156;20.788;2023-12-20T09:35:34;6.20;;;5.60;;
38611;SDS011;24368;52.156;20.788;2023-12-20T09:40:36;4.40;;;4.00;;
38611;SDS011;24368;52.156;20.788;2023-12-20T09:45:44;4.10;;;3.80;;
38611;SDS011;24368;52.156;20.788;2023-12-20T09:50:47;5.20;;;4.80;;
38611;SDS011;24368;52.156;20.788;2023-12-20T09:55:49;5.20;;;4.70;;
38611;SDS011;24368;52.156;20.788;2023-12-20T10:00:51;5.30;;;4.60;;
38611;SDS011;24368;52.156;20.788;2023-12-20T10:05:55;5.30;;;4.90;;
38611;SDS011;24368;52.156;20.788;2023-12-20T10:10:59;4.50;;;4.10;;
38611;SDS011;24368;52.156;20.788;2023-12-20T10:16:04;4.80;;;4.40;;
38611;SDS011;24368;52.156;20.788;2023-12-20T10:21:07;4.50;;;4.20;;
38611;SDS011;24368;52.156;20.788;2023-12-20T10:26:21;4.70;;;4.20;;
38611;SDS011;24368;52.156;20.788;2023-12-20T10:31:30;5.00;;;4.60;;
38611;SDS011;24368;52.156;20.788;2023-12-20T10:36:33;11.30;;;8.30;;
38611;SDS011;24368;52.156;20.788;2023-12-20T10:41:35;6.50;;;4.40;;
38611;SDS011;24368;52.156;20.788;2023-12-20T10:46:42;5.00;;;4.60;;
38611;SDS011;24368;52.156;20.788;2023-12-20T10:51:52;5.00;;;4.30;;
38611;SDS011;24368;52.156;20.788;2023-12-20T10:56:56;5.90;;;5.40;;
38611;SDS011;24368;52.156;20.788;2023-12-20T11:01:59;4.80;;;4.40;;
38611;SDS011;24368;52.156;20.788;2023-12-20T11:07:25;4.50;;;4.10;;
38611;SDS011;24368;52.156;20.788;2023-12-20T11:12:37;4.90;;;4.50;;
38611;SDS011;24368;52.156;20.788;2023-12-20T11:17:52;5.70;;;5.10;;
38611;SDS011;24368;52.156;20.788;2023-12-20T11:22:56;4.70;;;4.30;;
38611;SDS011;24368;52.156;20.788;2023-12-20T11:28:12;4.80;;;4.40;;
38611;SDS011;24368;52.156;20.788;2023-12-20T11:33:14;5.60;;;5.20;;
38611;SDS011;24368;52.156;20.788;2023-12-20T11:38:19;4.90;;;4.50;;
38611;SDS011;24368;52.156;20.788;2023-12-20T11:43:38;5.30;;;4.80;;
38611;SDS011;24368;52.156;20.788;2023-12-20T11:48:40;5.50;;;5.00;;
38611;SDS011;24368;52.156;20.788;2023-12-20T11:53:42;4.80;;;4.30;;
38611;SDS011;24368;52.156;20.788;2023-12-20T11:58:44;4.10;;;3.80;;
38611;SDS011;24368;52.156;20.788;2023-12-20T12:03:46;4.60;;;4.20;;
38611;SDS011;24368;52.156;20.788;2023-12-20T12:08:48;4.80;;;4.40;;
38611;SDS011;24368;52.156;20.788;2023-12-20T12:13:49;9.40;;;4.70;;
38611;SDS011;24368;52.156;20.788;2023-12-20T12:18:57;4.20;;;3.80;;
38611;SDS011;24368;52.156;20.788;2023-12-20T12:24:09;4.70;;;4.30;;
38611;SDS011;24368;52.156;20.788;2023-12-20T12:29:11;6.00;;;5.50;;
38611;SDS011;24368;52.156;20.788;2023-12-20T12:34:13;5.20;;;4.70;;
38611;SDS011;24368;52.156;20.788;2023-12-20T12:39:15;6.00;;;5.40;;
38611;SDS011;24368;52.156;20.788;2023-12-20T12:44:19;5.40;;;4.90;;
38611;SDS011;24368;52.156;20.788;2023-12-20T12:49:21;5.30;;;4.80;;
38611;SDS011;24368;52.156;20.788;2023-12-20T12:54:23;7.10;;;4.90;;
38611;SDS011;24368;52.156;20.788;2023-12-20T12:59:25;5.80;;;5.20;;
38611;SDS011;24368;52.156;20.788;2023-12-20T13:04:27;7.80;;;5.60;;
38611;SDS011;24368;52.156;20.788;2023-12-20T13:09:29;5.40;;;4.90;;
38611;SDS011;24368;52.156;20.788;2023-12-20T13:14:32;5.90;;;5.00;;
38611;SDS011;24368;52.156;20.788;2023-12-20T13:19:35;5.90;;;5.40;;
38611;SDS011;24368;52.156;20.788;2023-12-20T13:24:37;5.40;;;4.80;;
38611;SDS011;24368;52.156;20.788;2023-12-20T13:29:39;5.80;;;5.00;;
38611;SDS011;24368;52.156;20.788;2023-12-20T13:34:41;5.30;;;4.90;;
38611;SDS011;24368;52.156;20.788;2023-12-20T13:39:43;8.10;;;6.40;;
38611;SDS011;24368;52.156;20.788;2023-12-20T13:44:44;8.70;;;7.80;;
38611;SDS011;24368;52.156;20.788;2023-12-20T13:49:46;6.70;;;5.90;;
38611;SDS011;24368;52.156;20.788;2023-12-20T13:54:48;6.10;;;5.50;;
38611;SDS011;24368;52.156;20.788;2023-12-20T13:59:50;6.30;;;5.70;;
38611;SDS011;24368;52.156;20.788;2023-12-20T14:04:52;7.30;;;6.30;;
38611;SDS011;24368;52.156;20.788;2023-12-20T14:09:54;6.30;;;5.70;;
38611;SDS011;24368;52.156;20.788;2023-12-20T14:14:56;8.40;;;7.00;;
38611;SDS011;24368;52.156;20.788;2023-12-20T14:19:57;7.10;;;6.00;;
38611;SDS011;24368;52.156;20.788;2023-12-20T14:24:59;6.60;;;4.70;;
38611;SDS011;24368;52.156;20.788;2023-12-20T14:30:01;6.50;;;4.60;;
38611;SDS011;24368;52.156;20.788;2023-12-20T14:35:04;5.80;;;4.40;;
38611;SDS011;24368;52.156;20.788;2023-12-20T14:40:10;5.10;;;4.60;;
38611;SDS011;24368;52.156;20.788;2023-12-20T14:45:16;6.40;;;5.10;;
38611;SDS011;24368;52.156;20.788;2023-12-20T14:50:19;7.20;;;5.40;;
38611;SDS011;24368;52.156;20.788;2023-12-20T14:55:21;5.90;;;4.50;;
38611;SDS011;24368;52.156;20.788;2023-12-20T15:00:22;7.50;;;5.00;;
38611;SDS011;24368;52.156;20.788;2023-12-20T15:05:24;9.10;;;5.80;;
38611;SDS011;24368;52.156;20.788;2023-12-20T15:10:27;6.30;;;5.00;;
38611;SDS011;24368;52.156;20.788;2023-12-20T15:15:29;6.80;;;4.70;;
38611;SDS011;24368;52.156;20.788;2023-12-20T15:20:31;5.50;;;4.00;;
38611;SDS011;24368;52.156;20.788;2023-12-20T15:25:35;4.80;;;4.30;;
38611;SDS011;24368;52.156;20.788;2023-12-20T15:30:38;5.00;;;4.00;;
38611;SDS011;24368;52.156;20.788;2023-12-20T15:35:40;8.50;;;5.60;;
38611;SDS011;24368;52.156;20.788;2023-12-20T15:40:42;8.50;;;5.90;;
38611;SDS011;24368;52.156;20.788;2023-12-20T15:45:43;7.90;;;5.70;;
38611;SDS011;24368;52.156;20.788;2023-12-20T15:50:47;7.50;;;4.50;;
38611;SDS011;24368;52.156;20.788;2023-12-20T15:55:49;6.30;;;5.00;;
38611;SDS011;24368;52.156;20.788;2023-12-20T16:00:51;5.90;;;5.00;;
38611;SDS011;24368;52.156;20.788;2023-12-20T16:05:53;8.30;;;4.60;;
38611;SDS011;24368;52.156;20.788;2023-12-20T16:10:58;8.00;;;5.40;;
38611;SDS011;24368;52.156;20.788;2023-12-20T16:16:03;6.30;;;4.10;;
38611;SDS011;24368;52.156;20.788;2023-12-20T16:21:05;7.40;;;4.80;;
38611;SDS011;24368;52.156;20.788;2023-12-20T16:26:07;9.40;;;4.90;;
38611;SDS011;24368;52.156;20.788;2023-12-20T16:31:09;8.50;;;4.30;;
38611;SDS011;24368;52.156;20.788;2023-12-20T16:36:11;14.20;;;8.80;;
38611;SDS011;24368;52.156;20.788;2023-12-20T16:41:12;8.40;;;5.40;;
38611;SDS011;24368;52.156;20.788;2023-12-20T16:46:14;7.70;;;5.80;;
38611;SDS011;24368;52.156;20.788;2023-12-20T16:51:16;6.40;;;5.20;;
38611;SDS011;24368;52.156;20.788;2023-12-20T16:56:17;9.70;;;6.00;;
38611;SDS011;24368;52.156;20.788;2023-12-20T17:01:19;7.90;;;4.80;;
38611;SDS011;24368;52.156;20.788;2023-12-20T17:06:22;9.00;;;6.20;;
38611;SDS011;24368;52.156;20.788;2023-12-20T17:11:26;8.10;;;5.50;;
38611;SDS011;24368;52.156;20.788;2023-12-20T17:16:28;9.00;;;6.10;;
38611;SDS011;24368;52.156;20.788;2023-12-20T17:21:30;9.10;;;6.00;;
38611;SDS011;24368;52.156;20.788;2023-12-20T17:26:32;10.00;;;7.10;;
38611;SDS011;24368;52.156;20.788;2023-12-20T17:31:34;6.10;;;4.70;;
38611;SDS011;24368;52.156;20.788;2023-12-20T17:36:38;7.20;;;4.50;;
38611;SDS011;24368;52.156;20.788;2023-12-20T17:41:41;6.70;;;5.00;;
38611;SDS011;24368;52.156;20.788;2023-12-20T17:46:44;8.80;;;5.30;;
38611;SDS011;24368;52.156;20.788;2023-12-20T17:51:46;7.80;;;4.90;;
38611;SDS011;24368;52.156;20.788;2023-12-20T17:56:48;8.70;;;4.90;;
38611;SDS011;24368;52.156;20.788;2023-12-20T18:01:50;7.50;;;5.10;;
38611;SDS011;24368;52.156;20.788;2023-12-20T18:06:52;11.00;;;4.90;;
38611;SDS011;24368;52.156;20.788;2023-12-20T18:11:55;6.70;;;4.20;;
38611;SDS011;24368;52.156;20.788;2023-12-20T18:16:57;5.70;;;4.10;;
38611;SDS011;24368;52.156;20.788;2023-12-20T18:21:59;6.50;;;4.20;;
38611;SDS011;24368;52.156;20.788;2023-12-20T18:27:01;11.00;;;4.70;;
38611;SDS011;24368;52.156;20.788;2023-12-20T18:32:02;10.40;;;6.20;;
38611;SDS011;24368;52.156;20.788;2023-12-20T18:37:04;7.30;;;3.60;;
38611;SDS011;24368;52.156;20.788;2023-12-20T18:42:08;5.90;;;3.70;;
38611;SDS011;24368;52.156;20.788;2023-12-20T18:47:09;6.30;;;4.00;;
38611;SDS011;24368;52.156;20.788;2023-12-20T18:52:11;6.10;;;4.10;;
38611;SDS011;24368;52.156;20.788;2023-12-20T18:57:13;5.40;;;4.20;;
38611;SDS011;24368;52.156;20.788;2023-12-20T19:02:15;5.90;;;3.80;;
38611;SDS011;24368;52.156;20.788;2023-12-20T19:07:17;3.10;;;2.60;;
38611;SDS011;24368;52.156;20.788;2023-12-20T19:12:19;4.80;;;2.60;;
38611;SDS011;24368;52.156;20.788;2023-12-20T19:17:21;1.80;;;0.80;;
38611;SDS011;24368;52.156;20.788;2023-12-20T19:22:23;1.30;;;0.60;;
38611;SDS011;24368;52.156;20.788;2023-12-20T19:27:25;1.90;;;1.10;;
38611;SDS011;24368;52.156;20.788;2023-12-20T19:32:27;1.70;;;1.40;;
38611;SDS011;24368;52.156;20.788;2023-12-20T19:37:29;0.60;;;0.50;;
38611;SDS011;24368;52.156;20.788;2023-12-20T19:42:31;1.30;;;1.00;;
38611;SDS011;24368;52.156;20.788;2023-12-20T19:47:35;1.20;;;1.00;;
38611;SDS011;24368;52.156;20.788;2023-12-20T19:52:37;1.40;;;0.90;;
38611;SDS011;24368;52.156;20.788;2023-12-20T19:57:39;1.10;;;1.00;;
38611;SDS011;24368;52.156;20.788;2023-12-20T20:02:41;2.00;;;1.40;;
38611;SDS011;24368;52.156;20.788;2023-12-20T20:07:42;3.10;;;1.60;;
38611;SDS011;24368;52.156;20.788;2023-12-20T20:12:44;4.70;;;2.20;;
38611;SDS011;24368;52.156;20.788;2023-12-20T20:17:46;3.50;;;1.60;;
38611;SDS011;24368;52.156;20.788;2023-12-20T20:22:48;4.90;;;3.90;;
38611;SDS011;24368;52.156;20.788;2023-12-20T20:27:49;3.30;;;1.60;;
38611;SDS011;24368;52.156;20.788;2023-12-20T20:32:51;2.20;;;1.60;;
38611;SDS011;24368;52.156;20.788;2023-12-20T20:37:53;2.20;;;1.60;;
38611;SDS011;24368;52.156;20.788;2023-12-20T20:42:55;1.40;;;1.20;;
38611;SDS011;24368;52.156;20.788;2023-12-20T20:47:57;3.00;;;2.10;;
38611;SDS011;24368;52.156;20.788;2023-12-20T20:52:58;4.10;;;2.40;;
38611;SDS011;24368;52.156;20.788;2023-12-20T20:58:00;4.00;;;2.30;;
38611;SDS011;24368;52.156;20.788;2023-12-20T21:03:02;2.80;;;2.20;;
38611;SDS011;24368;52.156;20.788;2023-12-20T21:08:04;4.80;;;2.60;;
38611;SDS011;24368;52.156;20.788;2023-12-20T21:13:07;3.80;;;2.70;;
38611;SDS011;24368;52.156;20.788;2023-12-20T21:18:08;2.70;;;2.20;;
38611;SDS011;24368;52.156;20.788;2023-12-20T21:23:11;2.40;;;2.00;;
38611;SDS011;24368;52.156;20.788;2023-12-20T21:28:13;2.50;;;1.90;;
38611;SDS011;24368;52.156;20.788;2023-12-20T21:33:15;4.40;;;3.10;;
38611;SDS011;24368;52.156;20.788;2023-12-20T21:38:16;3.20;;;2.50;;
38611;SDS011;24368;52.156;20.788;2023-12-20T21:43:18;4.70;;;2.90;;
38611;SDS011;24368;52.156;20.788;2023-12-20T21:48:20;4.00;;;2.60;;
38611;SDS011;24368;52.156;20.788;2023-12-20T21:53:24;4.00;;;2.90;;
38611;SDS011;24368;52.156;20.788;2023-12-20T21:58:26;4.50;;;2.50;;
38611;SDS011;24368;52.156;20.788;2023-12-20T22:03:27;2.40;;;1.80;;
38611;SDS011;24368;52.156;20.788;2023-12-20T22:08:29;5.00;;;2.40;;
38611;SDS011;24368;52.156;20.788;2023-12-20T22:13:31;2.70;;;2.00;;
38611;SDS011;24368;52.156;20.788;2023-12-20T22:18:34;4.40;;;2.80;;
38611;SDS011;24368;52.156;20.788;2023-12-20T22:23:36;3.70;;;2.70;;
38611;SDS011;24368;52.156;20.788;2023-12-20T22:28:38;3.20;;;2.00;;
38611;SDS011;24368;52.156;20.788;2023-12-20T22:33:40;4.00;;;2.30;;
38611;SDS011;24368;52.156;20.788;2023-12-20T22:38:41;4.60;;;2.70;;
38611;SDS011;24368;52.156;20.788;2023-12-20T22:43:43;3.20;;;2.60;;
38611;SDS011;24368;52.156;20.788;2023-12-20T22:48:45;4.30;;;2.50;;
38611;SDS011;24368;52.156;20.788;2023-12-20T22:53:47;4.00;;;2.70;;
38611;SDS011;24368;52.156;20.788;2023-12-20T22:58:49;7.30;;;3.00;;
38611;SDS011;24368;52.156;20.788;2023-12-20T23:03:51;6.60;;;2.40;;
38611;SDS011;24368;52.156;20.788;2023-12-20T23:08:52;5.10;;;2.40;;
38611;SDS011;24368;52.156;20.788;2023-12-20T23:13:54;6.00;;;3.20;;
38611;SDS011;24368;52.156;20.788;2023-12-20T23:18:56;5.70;;;2.60;;
38611;SDS011;24368;52.156;20.788;2023-12-20T23:23:57;4.70;;;3.20;;
38611;SDS011;24368;52.156;20.788;2023-12-20T23:28:59;9.10;;;2.60;;
38611;SDS011;24368;52.156;20.788;2023-12-20T23:34:01;8.10;;;3.40;;
38611;SDS011;24368;52.156;20.788;2023-12-20T23:39:03;6.80;;;3.30;;
38611;SDS011;24368;52.156;20.788;2023-12-20T23:44:04;5.80;;;2.50;;
38611;SDS011;24368;52.156;20.788;2023-12-20T23:49:07;4.30;;;2.70;;
38611;SDS011;24368;52.156;20.788;2023-12-20T23:54:08;4.10;;;2.70;;
38611;SDS011;24368;52.156;20.788;2023-12-20T23:59:10;3.40;;;2.90;;
